sensor_id;sensor_type;location;lat;lon;timestamp;temperature;humidity
16655;DHT22;8441;51.344;7.022;2024-02-21T00:00:55;7.90;99.90
16655;DHT22;8441;51.344;7.022;2024-02-21T00:03:24;8.00;99.90
16655;DHT22;8441;51.344;7.022;2024-02-21T00:05:51;8.00;99.90
16655;DHT22;8441;51.344;7.022;2024-02-21T00:08:19;8.00;99.90
16655;DHT22;8441;51.344;7.022;2024-02-21T00:10:46;8.00;99.90
16655;DHT22;8441;51.344;7.022;2024-02-21T00:13:13;8.00;99.90
16655;DHT22;8441;51.344;7.022;2024-02-21T00:15:41;8.00;99.90
16655;DHT22;8441;51.344;7.022;2024-02-21T00:18:08;8.00;99.90
16655;DHT22;8441;51.344;7.022;2024-02-21T00:20:38;8.00;99.90
16655;DHT22;8441;51.344;7.022;2024-02-21T00:23:05;8.00;99.90
16655;DHT22;8441;51.344;7.022;2024-02-21T00:25:32;8.00;99.90
16655;DHT22;8441;51.344;7.022;2024-02-21T00:28:00;8.00;99.90
16655;DHT22;8441;51.344;7.022;2024-02-21T00:30:27;8.00;99.90
16655;DHT22;8441;51.344;7.022;2024-02-21T00:32:54;8.00;99.90
16655;DHT22;8441;51.344;7.022;2024-02-21T00:35:22;8.00;99.90
16655;DHT22;8441;51.344;7.022;2024-02-21T00:37:51;8.00;99.90
16655;DHT22;8441;51.344;7.022;2024-02-21T00:40:18;8.00;99.90
16655;DHT22;8441;51.344;7.022;2024-02-21T00:42:47;8.00;99.90
16655;DHT22;8441;51.344;7.022;2024-02-21T00:45:15;8.00;99.90
16655;DHT22;8441;51.344;7.022;2024-02-21T00:47:42;8.00;99.90
16655;DHT22;8441;51.344;7.022;2024-02-21T00:50:11;8.00;99.90
16655;DHT22;8441;51.344;7.022;2024-02-21T00:52:38;8.00;99.90
16655;DHT22;8441;51.344;7.022;2024-02-21T00:55:08;8.00;99.90
16655;DHT22;8441;51.344;7.022;2024-02-21T00:57:36;8.00;99.90
16655;DHT22;8441;51.344;7.022;2024-02-21T01:00:04;8.00;99.90
16655;DHT22;8441;51.344;7.022;2024-02-21T01:02:32;8.00;99.90
16655;DHT22;8441;51.344;7.022;2024-02-21T01:05:01;8.00;99.90
16655;DHT22;8441;51.344;7.022;2024-02-21T01:07:28;8.00;99.90
16655;DHT22;8441;51.344;7.022;2024-02-21T01:09:56;8.00;99.90
16655;DHT22;8441;51.344;7.022;2024-02-21T01:12:25;8.00;99.90
16655;DHT22;8441;51.344;7.022;2024-02-21T01:14:52;8.00;99.90
16655;DHT22;8441;51.344;7.022;2024-02-21T01:17:19;8.00;99.90
16655;DHT22;8441;51.344;7.022;2024-02-21T01:19:47;8.00;99.90
16655;DHT22;8441;51.344;7.022;2024-02-21T01:22:14;7.90;99.90
16655;DHT22;8441;51.344;7.022;2024-02-21T01:24:42;7.90;99.90
16655;DHT22;8441;51.344;7.022;2024-02-21T01:27:09;8.00;99.90
16655;DHT22;8441;51.344;7.022;2024-02-21T01:29:38;8.00;99.90
16655;DHT22;8441;51.344;7.022;2024-02-21T01:32:05;8.00;99.90
16655;DHT22;8441;51.344;7.022;2024-02-21T01:34:33;8.00;99.90
16655;DHT22;8441;51.344;7.022;2024-02-21T01:37:00;8.00;99.90
16655;DHT22;8441;51.344;7.022;2024-02-21T01:39:30;8.00;99.90
16655;DHT22;8441;51.344;7.022;2024-02-21T01:41:57;7.90;99.90
16655;DHT22;8441;51.344;7.022;2024-02-21T01:44:26;7.90;99.90
16655;DHT22;8441;51.344;7.022;2024-02-21T01:46:55;7.90;99.90
16655;DHT22;8441;51.344;7.022;2024-02-21T01:49:22;7.90;99.90
16655;DHT22;8441;51.344;7.022;2024-02-21T01:51:49;7.90;99.90
16655;DHT22;8441;51.344;7.022;2024-02-21T01:54:19;7.90;99.90
16655;DHT22;8441;51.344;7.022;2024-02-21T01:56:46;7.90;99.90
16655;DHT22;8441;51.344;7.022;2024-02-21T01:59:15;7.90;99.90
16655;DHT22;8441;51.344;7.022;2024-02-21T02:01:43;7.90;99.90
16655;DHT22;8441;51.344;7.022;2024-02-21T02:04:12;7.90;99.90
16655;DHT22;8441;51.344;7.022;2024-02-21T02:06:40;7.90;99.90
16655;DHT22;8441;51.344;7.022;2024-02-21T02:09:07;7.90;99.90
16655;DHT22;8441;51.344;7.022;2024-02-21T02:11:35;7.90;99.90
16655;DHT22;8441;51.344;7.022;2024-02-21T02:14:03;7.90;99.90
16655;DHT22;8441;51.344;7.022;2024-02-21T02:16:30;7.90;99.90
16655;DHT22;8441;51.344;7.022;2024-02-21T02:18:58;7.90;99.90
16655;DHT22;8441;51.344;7.022;2024-02-21T02:21:29;7.90;99.90
16655;DHT22;8441;51.344;7.022;2024-02-21T02:23:59;7.90;99.90
16655;DHT22;8441;51.344;7.022;2024-02-21T02:26:26;7.90;99.90
16655;DHT22;8441;51.344;7.022;2024-02-21T02:28:54;7.90;99.90
16655;DHT22;8441;51.344;7.022;2024-02-21T02:31:21;7.90;99.90
16655;DHT22;8441;51.344;7.022;2024-02-21T02:33:48;7.90;99.90
16655;DHT22;8441;51.344;7.022;2024-02-21T02:36:16;7.90;99.90
16655;DHT22;8441;51.344;7.022;2024-02-21T02:38:43;7.90;99.90
16655;DHT22;8441;51.344;7.022;2024-02-21T02:41:12;7.90;99.90
16655;DHT22;8441;51.344;7.022;2024-02-21T02:43:39;7.90;99.90
16655;DHT22;8441;51.344;7.022;2024-02-21T02:46:07;8.00;99.90
16655;DHT22;8441;51.344;7.022;2024-02-21T02:48:34;7.90;99.90
16655;DHT22;8441;51.344;7.022;2024-02-21T02:51:01;7.90;99.90
16655;DHT22;8441;51.344;7.022;2024-02-21T02:53:28;7.90;99.90
16655;DHT22;8441;51.344;7.022;2024-02-21T02:55:56;7.90;99.90
16655;DHT22;8441;51.344;7.022;2024-02-21T02:58:27;7.90;99.90
16655;DHT22;8441;51.344;7.022;2024-02-21T03:00:55;7.90;99.90
16655;DHT22;8441;51.344;7.022;2024-02-21T03:03:23;7.90;99.90
16655;DHT22;8441;51.344;7.022;2024-02-21T03:05:51;7.80;99.90
16655;DHT22;8441;51.344;7.022;2024-02-21T03:08:18;7.90;99.90
16655;DHT22;8441;51.344;7.022;2024-02-21T03:10:45;7.90;99.90
16655;DHT22;8441;51.344;7.022;2024-02-21T03:13:13;7.90;99.90
16655;DHT22;8441;51.344;7.022;2024-02-21T03:15:42;7.80;99.90
16655;DHT22;8441;51.344;7.022;2024-02-21T03:18:09;7.80;99.90
16655;DHT22;8441;51.344;7.022;2024-02-21T03:20:36;7.80;99.90
16655;DHT22;8441;51.344;7.022;2024-02-21T03:23:03;7.80;99.90
16655;DHT22;8441;51.344;7.022;2024-02-21T03:25:31;7.80;99.90
16655;DHT22;8441;51.344;7.022;2024-02-21T03:27:58;7.70;99.90
16655;DHT22;8441;51.344;7.022;2024-02-21T03:30:25;7.70;99.90
16655;DHT22;8441;51.344;7.022;2024-02-21T03:32:54;7.70;99.90
16655;DHT22;8441;51.344;7.022;2024-02-21T03:35:21;7.70;99.90
16655;DHT22;8441;51.344;7.022;2024-02-21T03:37:52;7.60;99.90
16655;DHT22;8441;51.344;7.022;2024-02-21T03:40:19;7.60;99.90
16655;DHT22;8441;51.344;7.022;2024-02-21T03:42:46;7.60;99.90
16655;DHT22;8441;51.344;7.022;2024-02-21T03:45:13;7.70;99.90
16655;DHT22;8441;51.344;7.022;2024-02-21T03:47:41;7.60;99.90
16655;DHT22;8441;51.344;7.022;2024-02-21T03:50:10;7.60;99.90
16655;DHT22;8441;51.344;7.022;2024-02-21T03:52:40;7.60;99.90
16655;DHT22;8441;51.344;7.022;2024-02-21T03:55:08;7.60;99.90
16655;DHT22;8441;51.344;7.022;2024-02-21T03:57:35;7.60;99.90
16655;DHT22;8441;51.344;7.022;2024-02-21T04:00:05;7.70;99.90
16655;DHT22;8441;51.344;7.022;2024-02-21T04:02:38;7.70;99.90
16655;DHT22;8441;51.344;7.022;2024-02-21T04:05:06;7.70;99.90
16655;DHT22;8441;51.344;7.022;2024-02-21T04:07:38;7.70;99.90
16655;DHT22;8441;51.344;7.022;2024-02-21T04:10:06;7.80;99.90
16655;DHT22;8441;51.344;7.022;2024-02-21T04:12:33;7.80;99.90
16655;DHT22;8441;51.344;7.022;2024-02-21T04:15:00;7.80;99.90
16655;DHT22;8441;51.344;7.022;2024-02-21T04:17:28;7.70;99.90
16655;DHT22;8441;51.344;7.022;2024-02-21T04:20:03;7.80;99.90
16655;DHT22;8441;51.344;7.022;2024-02-21T04:22:31;7.80;99.90
16655;DHT22;8441;51.344;7.022;2024-02-21T04:25:01;7.80;99.90
16655;DHT22;8441;51.344;7.022;2024-02-21T04:27:28;7.80;99.90
16655;DHT22;8441;51.344;7.022;2024-02-21T04:29:55;7.80;99.90
16655;DHT22;8441;51.344;7.022;2024-02-21T04:32:22;7.80;99.90
16655;DHT22;8441;51.344;7.022;2024-02-21T04:34:50;7.80;99.90
16655;DHT22;8441;51.344;7.022;2024-02-21T04:37:17;7.80;99.90
16655;DHT22;8441;51.344;7.022;2024-02-21T04:39:44;7.80;99.90
16655;DHT22;8441;51.344;7.022;2024-02-21T04:42:13;7.80;99.90
16655;DHT22;8441;51.344;7.022;2024-02-21T04:44:40;7.80;99.90
16655;DHT22;8441;51.344;7.022;2024-02-21T04:47:08;7.80;99.90
16655;DHT22;8441;51.344;7.022;2024-02-21T04:49:35;7.80;99.90
16655;DHT22;8441;51.344;7.022;2024-02-21T04:52:02;7.80;99.90
16655;DHT22;8441;51.344;7.022;2024-02-21T04:54:30;7.80;99.90
16655;DHT22;8441;51.344;7.022;2024-02-21T04:56:57;7.80;99.90
16655;DHT22;8441;51.344;7.022;2024-02-21T04:59:26;7.80;99.90
16655;DHT22;8441;51.344;7.022;2024-02-21T05:01:53;7.80;99.90
16655;DHT22;8441;51.344;7.022;2024-02-21T05:04:20;7.70;99.90
16655;DHT22;8441;51.344;7.022;2024-02-21T05:06:48;7.80;99.90
16655;DHT22;8441;51.344;7.022;2024-02-21T05:09:15;7.80;99.90
16655;DHT22;8441;51.344;7.022;2024-02-21T05:11:42;7.80;99.90
16655;DHT22;8441;51.344;7.022;2024-02-21T05:14:10;7.80;99.90
16655;DHT22;8441;51.344;7.022;2024-02-21T05:16:38;7.70;99.90
16655;DHT22;8441;51.344;7.022;2024-02-21T05:19:06;7.80;99.90
16655;DHT22;8441;51.344;7.022;2024-02-21T05:21:33;7.80;99.90
16655;DHT22;8441;51.344;7.022;2024-02-21T05:24:01;7.80;99.90
16655;DHT22;8441;51.344;7.022;2024-02-21T05:26:28;7.80;99.90
16655;DHT22;8441;51.344;7.022;2024-02-21T05:28:55;7.80;99.90
16655;DHT22;8441;51.344;7.022;2024-02-21T05:31:24;7.80;99.90
16655;DHT22;8441;51.344;7.022;2024-02-21T05:33:53;7.80;99.90
16655;DHT22;8441;51.344;7.022;2024-02-21T05:36:21;7.70;99.90
16655;DHT22;8441;51.344;7.022;2024-02-21T05:38:48;7.80;99.90
16655;DHT22;8441;51.344;7.022;2024-02-21T05:41:15;7.80;99.90
16655;DHT22;8441;51.344;7.022;2024-02-21T05:43:42;7.80;99.90
16655;DHT22;8441;51.344;7.022;2024-02-21T05:46:10;7.80;99.90
16655;DHT22;8441;51.344;7.022;2024-02-21T05:48:37;7.80;99.90
16655;DHT22;8441;51.344;7.022;2024-02-21T05:51:05;7.70;99.90
16655;DHT22;8441;51.344;7.022;2024-02-21T05:53:33;7.80;99.90
16655;DHT22;8441;51.344;7.022;2024-02-21T05:56:02;7.80;99.90
16655;DHT22;8441;51.344;7.022;2024-02-21T05:58:30;7.80;99.90
16655;DHT22;8441;51.344;7.022;2024-02-21T06:00:57;7.70;99.90
16655;DHT22;8441;51.344;7.022;2024-02-21T06:03:24;7.80;99.90
16655;DHT22;8441;51.344;7.022;2024-02-21T06:05:52;7.80;99.90
16655;DHT22;8441;51.344;7.022;2024-02-21T06:08:20;7.80;99.90
16655;DHT22;8441;51.344;7.022;2024-02-21T06:10:48;7.80;99.90
16655;DHT22;8441;51.344;7.022;2024-02-21T06:13:17;7.70;99.90
16655;DHT22;8441;51.344;7.022;2024-02-21T06:15:45;7.80;99.90
16655;DHT22;8441;51.344;7.022;2024-02-21T06:18:12;7.80;99.90
16655;DHT22;8441;51.344;7.022;2024-02-21T06:20:39;7.70;99.90
16655;DHT22;8441;51.344;7.022;2024-02-21T06:23:07;7.70;99.90
16655;DHT22;8441;51.344;7.022;2024-02-21T06:25:36;7.80;99.90
16655;DHT22;8441;51.344;7.022;2024-02-21T06:28:04;7.80;99.90
16655;DHT22;8441;51.344;7.022;2024-02-21T06:30:31;7.80;99.90
16655;DHT22;8441;51.344;7.022;2024-02-21T06:32:59;7.80;99.90
16655;DHT22;8441;51.344;7.022;2024-02-21T06:35:26;7.80;99.90
16655;DHT22;8441;51.344;7.022;2024-02-21T06:37:53;7.80;99.90
16655;DHT22;8441;51.344;7.022;2024-02-21T06:40:22;7.80;99.90
16655;DHT22;8441;51.344;7.022;2024-02-21T06:42:51;7.80;99.90
16655;DHT22;8441;51.344;7.022;2024-02-21T06:45:18;7.80;99.90
16655;DHT22;8441;51.344;7.022;2024-02-21T06:47:45;7.80;99.90
16655;DHT22;8441;51.344;7.022;2024-02-21T06:50:13;7.80;99.90
16655;DHT22;8441;51.344;7.022;2024-02-21T06:52:40;7.80;99.90
16655;DHT22;8441;51.344;7.022;2024-02-21T06:55:08;7.80;99.90
16655;DHT22;8441;51.344;7.022;2024-02-21T06:57:35;7.80;99.90
16655;DHT22;8441;51.344;7.022;2024-02-21T07:00:05;7.80;99.90
16655;DHT22;8441;51.344;7.022;2024-02-21T07:02:33;7.90;99.90
16655;DHT22;8441;51.344;7.022;2024-02-21T07:05:01;7.90;99.90
16655;DHT22;8441;51.344;7.022;2024-02-21T07:07:28;7.90;99.90
16655;DHT22;8441;51.344;7.022;2024-02-21T07:09:55;7.90;99.90
16655;DHT22;8441;51.344;7.022;2024-02-21T07:12:26;7.90;99.90
16655;DHT22;8441;51.344;7.022;2024-02-21T07:14:53;7.90;99.90
16655;DHT22;8441;51.344;7.022;2024-02-21T07:17:22;8.00;99.90
16655;DHT22;8441;51.344;7.022;2024-02-21T07:19:49;8.00;99.90
16655;DHT22;8441;51.344;7.022;2024-02-21T07:22:16;8.00;99.90
16655;DHT22;8441;51.344;7.022;2024-02-21T07:24:44;8.00;99.90
16655;DHT22;8441;51.344;7.022;2024-02-21T07:27:14;8.00;99.90
16655;DHT22;8441;51.344;7.022;2024-02-21T07:29:42;8.10;99.90
16655;DHT22;8441;51.344;7.022;2024-02-21T07:32:13;8.10;99.90
16655;DHT22;8441;51.344;7.022;2024-02-21T07:34:43;8.10;99.90
16655;DHT22;8441;51.344;7.022;2024-02-21T07:37:10;8.20;99.90
16655;DHT22;8441;51.344;7.022;2024-02-21T07:39:37;8.20;99.90
16655;DHT22;8441;51.344;7.022;2024-02-21T07:42:04;8.20;99.90
16655;DHT22;8441;51.344;7.022;2024-02-21T07:44:32;8.20;99.90
16655;DHT22;8441;51.344;7.022;2024-02-21T07:47:00;8.30;99.90
16655;DHT22;8441;51.344;7.022;2024-02-21T07:49:27;8.20;99.90
16655;DHT22;8441;51.344;7.022;2024-02-21T07:51:56;8.20;99.90
16655;DHT22;8441;51.344;7.022;2024-02-21T07:54:23;8.30;99.90
16655;DHT22;8441;51.344;7.022;2024-02-21T07:56:50;8.30;99.90
16655;DHT22;8441;51.344;7.022;2024-02-21T07:59:18;8.30;99.90
16655;DHT22;8441;51.344;7.022;2024-02-21T08:01:45;8.30;99.90
16655;DHT22;8441;51.344;7.022;2024-02-21T08:04:12;8.30;99.90
16655;DHT22;8441;51.344;7.022;2024-02-21T08:06:40;8.30;99.90
16655;DHT22;8441;51.344;7.022;2024-02-21T08:09:08;8.40;99.90
16655;DHT22;8441;51.344;7.022;2024-02-21T08:11:36;8.40;99.90
16655;DHT22;8441;51.344;7.022;2024-02-21T08:14:03;8.40;99.90
16655;DHT22;8441;51.344;7.022;2024-02-21T08:16:30;8.50;99.90
16655;DHT22;8441;51.344;7.022;2024-02-21T08:18:57;8.60;99.90
16655;DHT22;8441;51.344;7.022;2024-02-21T08:21:25;8.50;99.90
16655;DHT22;8441;51.344;7.022;2024-02-21T08:23:53;8.50;99.90
16655;DHT22;8441;51.344;7.022;2024-02-21T08:26:21;8.40;99.90
16655;DHT22;8441;51.344;7.022;2024-02-21T08:28:48;8.40;99.90
16655;DHT22;8441;51.344;7.022;2024-02-21T08:31:19;8.40;99.90
16655;DHT22;8441;51.344;7.022;2024-02-21T08:33:46;8.40;99.90
16655;DHT22;8441;51.344;7.022;2024-02-21T08:36:17;8.30;99.90
16655;DHT22;8441;51.344;7.022;2024-02-21T08:38:45;8.30;99.90
16655;DHT22;8441;51.344;7.022;2024-02-21T08:41:13;8.20;99.90
16655;DHT22;8441;51.344;7.022;2024-02-21T08:43:43;8.20;99.90
16655;DHT22;8441;51.344;7.022;2024-02-21T08:46:10;8.20;99.90
16655;DHT22;8441;51.344;7.022;2024-02-21T08:48:38;8.20;99.90
16655;DHT22;8441;51.344;7.022;2024-02-21T08:51:05;8.20;99.90
16655;DHT22;8441;51.344;7.022;2024-02-21T08:53:32;8.20;99.90
16655;DHT22;8441;51.344;7.022;2024-02-21T08:55:59;8.20;99.90
16655;DHT22;8441;51.344;7.022;2024-02-21T08:58:27;8.20;99.90
16655;DHT22;8441;51.344;7.022;2024-02-21T09:00:55;8.30;99.90
16655;DHT22;8441;51.344;7.022;2024-02-21T09:03:23;8.30;99.90
16655;DHT22;8441;51.344;7.022;2024-02-21T09:05:50;8.20;99.90
16655;DHT22;8441;51.344;7.022;2024-02-21T09:08:18;8.20;99.90
16655;DHT22;8441;51.344;7.022;2024-02-21T09:10:45;8.20;99.90
16655;DHT22;8441;51.344;7.022;2024-02-21T09:13:13;8.10;99.90
16655;DHT22;8441;51.344;7.022;2024-02-21T09:15:40;8.10;99.90
16655;DHT22;8441;51.344;7.022;2024-02-21T09:18:09;8.10;99.90
16655;DHT22;8441;51.344;7.022;2024-02-21T09:20:36;8.10;99.90
16655;DHT22;8441;51.344;7.022;2024-02-21T09:23:04;8.10;99.90
16655;DHT22;8441;51.344;7.022;2024-02-21T09:25:31;8.10;99.90
16655;DHT22;8441;51.344;7.022;2024-02-21T09:27:59;8.10;99.90
16655;DHT22;8441;51.344;7.022;2024-02-21T09:30:26;8.10;99.90
16655;DHT22;8441;51.344;7.022;2024-02-21T09:32:54;8.10;99.90
16655;DHT22;8441;51.344;7.022;2024-02-21T09:35:25;8.10;99.90
16655;DHT22;8441;51.344;7.022;2024-02-21T09:37:53;8.10;99.90
16655;DHT22;8441;51.344;7.022;2024-02-21T09:40:20;8.10;99.90
16655;DHT22;8441;51.344;7.022;2024-02-21T09:42:48;8.10;99.90
16655;DHT22;8441;51.344;7.022;2024-02-21T09:45:23;8.10;99.90
16655;DHT22;8441;51.344;7.022;2024-02-21T09:48:08;8.10;99.90
16655;DHT22;8441;51.344;7.022;2024-02-21T09:50:40;8.20;99.90
16655;DHT22;8441;51.344;7.022;2024-02-21T09:53:08;8.30;99.90
16655;DHT22;8441;51.344;7.022;2024-02-21T09:55:38;8.40;99.90
16655;DHT22;8441;51.344;7.022;2024-02-21T09:58:07;8.40;99.90
16655;DHT22;8441;51.344;7.022;2024-02-21T10:00:35;8.40;99.90
16655;DHT22;8441;51.344;7.022;2024-02-21T10:03:03;8.50;99.90
16655;DHT22;8441;51.344;7.022;2024-02-21T10:05:36;8.60;99.90
16655;DHT22;8441;51.344;7.022;2024-02-21T10:08:05;8.70;99.90
16655;DHT22;8441;51.344;7.022;2024-02-21T10:10:42;8.80;99.90
16655;DHT22;8441;51.344;7.022;2024-02-21T10:13:10;8.80;99.90
16655;DHT22;8441;51.344;7.022;2024-02-21T10:15:37;9.00;99.90
16655;DHT22;8441;51.344;7.022;2024-02-21T10:18:05;9.10;99.90
16655;DHT22;8441;51.344;7.022;2024-02-21T10:20:33;9.20;99.90
16655;DHT22;8441;51.344;7.022;2024-02-21T10:23:01;9.20;99.90
16655;DHT22;8441;51.344;7.022;2024-02-21T10:25:31;9.30;99.90
16655;DHT22;8441;51.344;7.022;2024-02-21T10:27:58;9.40;99.90
16655;DHT22;8441;51.344;7.022;2024-02-21T10:30:25;9.50;99.90
16655;DHT22;8441;51.344;7.022;2024-02-21T10:32:53;9.50;99.90
16655;DHT22;8441;51.344;7.022;2024-02-21T10:35:27;9.50;99.90
16655;DHT22;8441;51.344;7.022;2024-02-21T10:37:56;9.70;99.90
16655;DHT22;8441;51.344;7.022;2024-02-21T10:40:24;9.70;99.90
16655;DHT22;8441;51.344;7.022;2024-02-21T10:42:56;9.80;99.90
16655;DHT22;8441;51.344;7.022;2024-02-21T10:45:30;9.90;99.90
16655;DHT22;8441;51.344;7.022;2024-02-21T10:48:07;9.90;99.90
16655;DHT22;8441;51.344;7.022;2024-02-21T10:50:41;9.90;99.90
16655;DHT22;8441;51.344;7.022;2024-02-21T10:53:20;9.90;99.90
16655;DHT22;8441;51.344;7.022;2024-02-21T10:55:58;10.00;99.90
16655;DHT22;8441;51.344;7.022;2024-02-21T10:58:30;10.10;99.90
16655;DHT22;8441;51.344;7.022;2024-02-21T11:00:59;10.10;99.90
16655;DHT22;8441;51.344;7.022;2024-02-21T11:03:26;10.20;99.90
16655;DHT22;8441;51.344;7.022;2024-02-21T11:05:54;10.30;99.90
16655;DHT22;8441;51.344;7.022;2024-02-21T11:08:21;10.40;99.90
16655;DHT22;8441;51.344;7.022;2024-02-21T11:10:50;10.50;99.90
16655;DHT22;8441;51.344;7.022;2024-02-21T11:13:18;10.60;99.90
16655;DHT22;8441;51.344;7.022;2024-02-21T11:15:46;10.60;99.90
16655;DHT22;8441;51.344;7.022;2024-02-21T11:18:23;10.50;99.90
16655;DHT22;8441;51.344;7.022;2024-02-21T11:20:50;10.50;99.90
16655;DHT22;8441;51.344;7.022;2024-02-21T11:23:25;10.60;99.90
16655;DHT22;8441;51.344;7.022;2024-02-21T11:25:52;10.80;99.90
16655;DHT22;8441;51.344;7.022;2024-02-21T11:28:25;10.80;99.90
16655;DHT22;8441;51.344;7.022;2024-02-21T11:31:08;10.90;99.90
16655;DHT22;8441;51.344;7.022;2024-02-21T11:33:35;10.80;99.90
16655;DHT22;8441;51.344;7.022;2024-02-21T11:36:02;10.90;99.90
16655;DHT22;8441;51.344;7.022;2024-02-21T11:38:30;11.00;99.90
16655;DHT22;8441;51.344;7.022;2024-02-21T11:40:57;11.20;99.90
16655;DHT22;8441;51.344;7.022;2024-02-21T11:43:25;11.00;99.90
16655;DHT22;8441;51.344;7.022;2024-02-21T11:46:00;10.90;99.90
16655;DHT22;8441;51.344;7.022;2024-02-21T11:48:29;11.00;99.90
16655;DHT22;8441;51.344;7.022;2024-02-21T11:50:57;10.90;99.90
16655;DHT22;8441;51.344;7.022;2024-02-21T11:53:26;10.90;99.90
16655;DHT22;8441;51.344;7.022;2024-02-21T11:55:56;10.90;99.90
16655;DHT22;8441;51.344;7.022;2024-02-21T11:58:24;10.90;99.90
16655;DHT22;8441;51.344;7.022;2024-02-21T12:00:52;11.00;99.90
16655;DHT22;8441;51.344;7.022;2024-02-21T12:03:21;11.00;99.90
16655;DHT22;8441;51.344;7.022;2024-02-21T12:05:48;11.10;99.90
16655;DHT22;8441;51.344;7.022;2024-02-21T12:08:16;11.10;99.90
16655;DHT22;8441;51.344;7.022;2024-02-21T12:10:44;11.00;99.90
16655;DHT22;8441;51.344;7.022;2024-02-21T12:13:16;11.10;99.90
16655;DHT22;8441;51.344;7.022;2024-02-21T12:15:48;11.20;99.90
16655;DHT22;8441;51.344;7.022;2024-02-21T12:18:15;11.10;99.90
16655;DHT22;8441;51.344;7.022;2024-02-21T12:20:44;11.10;99.90
16655;DHT22;8441;51.344;7.022;2024-02-21T12:23:14;11.10;99.90
16655;DHT22;8441;51.344;7.022;2024-02-21T12:25:44;11.00;99.90
16655;DHT22;8441;51.344;7.022;2024-02-21T12:28:11;11.10;99.90
16655;DHT22;8441;51.344;7.022;2024-02-21T12:30:39;11.10;99.90
16655;DHT22;8441;51.344;7.022;2024-02-21T12:33:06;11.00;99.90
16655;DHT22;8441;51.344;7.022;2024-02-21T12:35:33;11.10;99.90
16655;DHT22;8441;51.344;7.022;2024-02-21T12:38:02;11.10;99.90
16655;DHT22;8441;51.344;7.022;2024-02-21T12:40:29;11.20;99.90
16655;DHT22;8441;51.344;7.022;2024-02-21T12:42:58;11.30;99.90
16655;DHT22;8441;51.344;7.022;2024-02-21T12:45:28;11.40;99.90
16655;DHT22;8441;51.344;7.022;2024-02-21T12:47:56;11.40;99.90
16655;DHT22;8441;51.344;7.022;2024-02-21T12:50:23;11.50;99.90
16655;DHT22;8441;51.344;7.022;2024-02-21T12:52:51;11.40;99.90
16655;DHT22;8441;51.344;7.022;2024-02-21T12:55:20;11.60;99.90
16655;DHT22;8441;51.344;7.022;2024-02-21T12:57:47;11.60;99.90
16655;DHT22;8441;51.344;7.022;2024-02-21T13:00:15;11.60;99.90
16655;DHT22;8441;51.344;7.022;2024-02-21T13:02:43;11.70;99.90
16655;DHT22;8441;51.344;7.022;2024-02-21T13:05:12;11.80;99.90
16655;DHT22;8441;51.344;7.022;2024-02-21T13:07:39;11.80;99.90
16655;DHT22;8441;51.344;7.022;2024-02-21T13:10:07;11.80;99.90
16655;DHT22;8441;51.344;7.022;2024-02-21T13:12:38;11.90;99.90
16655;DHT22;8441;51.344;7.022;2024-02-21T13:15:07;12.10;99.90
16655;DHT22;8441;51.344;7.022;2024-02-21T13:17:37;12.00;99.90
16655;DHT22;8441;51.344;7.022;2024-02-21T13:20:06;12.00;99.90
16655;DHT22;8441;51.344;7.022;2024-02-21T13:22:34;11.90;99.90
16655;DHT22;8441;51.344;7.022;2024-02-21T13:25:01;11.80;99.90
16655;DHT22;8441;51.344;7.022;2024-02-21T13:27:29;11.80;99.90
16655;DHT22;8441;51.344;7.022;2024-02-21T13:29:57;11.80;99.90
16655;DHT22;8441;51.344;7.022;2024-02-21T13:32:27;11.80;99.90
16655;DHT22;8441;51.344;7.022;2024-02-21T13:34:54;11.80;99.90
16655;DHT22;8441;51.344;7.022;2024-02-21T13:37:21;11.80;99.90
16655;DHT22;8441;51.344;7.022;2024-02-21T13:39:49;11.70;99.90
16655;DHT22;8441;51.344;7.022;2024-02-21T13:42:16;11.70;99.90
16655;DHT22;8441;51.344;7.022;2024-02-21T13:44:46;11.70;99.90
16655;DHT22;8441;51.344;7.022;2024-02-21T13:47:15;11.60;99.90
16655;DHT22;8441;51.344;7.022;2024-02-21T13:49:42;11.50;99.90
16655;DHT22;8441;51.344;7.022;2024-02-21T13:52:10;11.50;99.90
16655;DHT22;8441;51.344;7.022;2024-02-21T13:54:37;11.60;99.90
16655;DHT22;8441;51.344;7.022;2024-02-21T13:57:05;11.70;99.90
16655;DHT22;8441;51.344;7.022;2024-02-21T13:59:32;11.70;99.90
16655;DHT22;8441;51.344;7.022;2024-02-21T14:02:00;11.70;99.90
16655;DHT22;8441;51.344;7.022;2024-02-21T14:04:29;11.60;99.90
16655;DHT22;8441;51.344;7.022;2024-02-21T14:06:56;11.70;99.90
16655;DHT22;8441;51.344;7.022;2024-02-21T14:09:24;11.70;99.90
16655;DHT22;8441;51.344;7.022;2024-02-21T14:11:51;11.70;99.90
16655;DHT22;8441;51.344;7.022;2024-02-21T14:14:18;11.50;99.90
16655;DHT22;8441;51.344;7.022;2024-02-21T14:16:45;11.50;99.90
16655;DHT22;8441;51.344;7.022;2024-02-21T14:19:13;11.60;99.90
16655;DHT22;8441;51.344;7.022;2024-02-21T14:21:42;11.60;99.90
16655;DHT22;8441;51.344;7.022;2024-02-21T14:24:11;11.70;99.90
16655;DHT22;8441;51.344;7.022;2024-02-21T14:26:38;11.70;99.90
16655;DHT22;8441;51.344;7.022;2024-02-21T14:29:07;12.00;99.90
16655;DHT22;8441;51.344;7.022;2024-02-21T14:31:34;12.20;99.90
16655;DHT22;8441;51.344;7.022;2024-02-21T14:34:02;12.20;99.90
16655;DHT22;8441;51.344;7.022;2024-02-21T14:36:29;12.20;99.90
16655;DHT22;8441;51.344;7.022;2024-02-21T14:38:57;12.00;99.90
16655;DHT22;8441;51.344;7.022;2024-02-21T14:41:25;12.00;99.90
16655;DHT22;8441;51.344;7.022;2024-02-21T14:43:53;11.90;99.90
16655;DHT22;8441;51.344;7.022;2024-02-21T14:46:21;11.90;99.90
16655;DHT22;8441;51.344;7.022;2024-02-21T14:48:48;11.80;99.90
16655;DHT22;8441;51.344;7.022;2024-02-21T14:51:16;11.60;99.90
16655;DHT22;8441;51.344;7.022;2024-02-21T14:53:43;11.60;99.90
16655;DHT22;8441;51.344;7.022;2024-02-21T14:56:14;11.50;99.90
16655;DHT22;8441;51.344;7.022;2024-02-21T14:58:42;11.50;99.90
16655;DHT22;8441;51.344;7.022;2024-02-21T15:01:09;11.50;99.90
16655;DHT22;8441;51.344;7.022;2024-02-21T15:03:39;11.40;99.90
16655;DHT22;8441;51.344;7.022;2024-02-21T15:06:06;11.50;99.90
16655;DHT22;8441;51.344;7.022;2024-02-21T15:08:33;11.50;99.90
16655;DHT22;8441;51.344;7.022;2024-02-21T15:11:01;11.40;99.90
16655;DHT22;8441;51.344;7.022;2024-02-21T15:13:31;11.40;99.90
16655;DHT22;8441;51.344;7.022;2024-02-21T15:15:58;11.30;99.90
16655;DHT22;8441;51.344;7.022;2024-02-21T15:18:25;11.30;99.90
16655;DHT22;8441;51.344;7.022;2024-02-21T15:20:52;11.20;99.90
16655;DHT22;8441;51.344;7.022;2024-02-21T15:23:20;11.20;99.90
16655;DHT22;8441;51.344;7.022;2024-02-21T15:25:49;11.10;99.90
16655;DHT22;8441;51.344;7.022;2024-02-21T15:28:16;11.00;99.90
16655;DHT22;8441;51.344;7.022;2024-02-21T15:30:45;11.00;99.90
16655;DHT22;8441;51.344;7.022;2024-02-21T15:33:12;10.90;99.90
16655;DHT22;8441;51.344;7.022;2024-02-21T15:35:39;10.80;99.90
16655;DHT22;8441;51.344;7.022;2024-02-21T15:38:07;10.70;99.90
16655;DHT22;8441;51.344;7.022;2024-02-21T15:40:35;10.70;99.90
16655;DHT22;8441;51.344;7.022;2024-02-21T15:43:02;10.90;99.90
16655;DHT22;8441;51.344;7.022;2024-02-21T15:45:30;11.00;99.90
16655;DHT22;8441;51.344;7.022;2024-02-21T15:47:58;11.20;99.90
16655;DHT22;8441;51.344;7.022;2024-02-21T15:50:26;11.30;99.90
16655;DHT22;8441;51.344;7.022;2024-02-21T15:52:55;11.30;99.90
16655;DHT22;8441;51.344;7.022;2024-02-21T15:55:22;11.30;99.90
16655;DHT22;8441;51.344;7.022;2024-02-21T15:57:49;11.40;99.90
16655;DHT22;8441;51.344;7.022;2024-02-21T16:00:17;11.30;99.90
16655;DHT22;8441;51.344;7.022;2024-02-21T16:02:44;11.20;99.90